Time;durP1;ratioP1;P1;durP2;ratioP2;P2;SDS_P1;SDS_P2;PMS_P1;PMS_P2;Temp;Humidity;BMP_temperature;BMP_pressure;BME280_temperature;BME280_humidity;BME280_pressure;Samples;Min_cycle;Max_cycle;Signal;HPM_P1;HPM_P2
2023/12/09 00:01:42;;;;;;;0.90;0.90;;;;;;;3.62;100.00;100580.34;5010981;28;20306;-79
2023/12/09 00:04:09;;;;;;;1.40;1.30;;;;;;;3.85;100.00;100592.63;5011029;28;20212;-78
2023/12/09 00:06:36;;;;;;;1.23;1.23;;;;;;;3.33;100.00;100515.69;4992317;28;20284;-78
2023/12/09 00:09:03;;;;;;;1.13;1.13;;;;;;;3.83;100.00;100617.31;5010916;28;20716;-78
2023/12/09 00:11:30;;;;;;;0.90;0.90;;;;;;;3.70;100.00;100602.13;5011077;28;20197;-77
2023/12/09 00:14:03;;;;;;;0.90;0.90;;;;;;;3.65;100.00;100609.56;5008894;28;20223;-78
2023/12/09 00:16:30;;;;;;;1.43;1.43;;;;;;;3.90;100.00;100637.34;5010392;28;20197;-77
2023/12/09 00:18:57;;;;;;;9.03;1.33;;;;;;;3.90;100.00;100635.66;5010532;28;20372;-77
2023/12/09 00:21:24;;;;;;;1.00;1.00;;;;;;;3.95;100.00;100631.66;5010323;28;20224;-78
2023/12/09 00:23:51;;;;;;;1.20;1.20;;;;;;;3.73;100.00;100605.72;5010334;28;20237;-78
2023/12/09 00:26:17;;;;;;;1.53;1.53;;;;;;;3.79;100.00;100635.91;5010280;28;20208;-77
2023/12/09 00:28:44;;;;;;;1.57;1.43;;;;;;;3.88;100.00;100618.44;5010985;28;20274;-77
2023/12/09 00:31:12;;;;;;;2.17;2.07;;;;;;;3.89;100.00;100633.00;5010778;28;20275;-77
2023/12/09 00:33:39;;;;;;;1.47;1.47;;;;;;;3.75;100.00;100623.72;5010584;28;20197;-77
2023/12/09 00:36:07;;;;;;;1.20;1.20;;;;;;;3.64;100.00;100622.34;5011010;28;20204;-77
2023/12/09 00:38:33;;;;;;;1.87;1.87;;;;;;;2.93;100.00;100519.56;5013657;28;20204;-77
2023/12/09 00:41:00;;;;;;;1.97;1.87;;;;;;;3.62;100.00;100622.25;5013996;28;20224;-77
2023/12/09 00:43:27;;;;;;;1.60;1.50;;;;;;;3.52;100.00;100598.63;5013973;28;20664;-77
2023/12/09 00:45:54;;;;;;;1.57;1.57;;;;;;;3.57;100.00;100617.69;5014228;28;20197;-77
2023/12/09 00:48:22;;;;;;;1.20;1.20;;;;;;;3.64;100.00;100619.78;5014170;28;20193;-77
2023/12/09 00:50:48;;;;;;;1.43;1.43;;;;;;;3.56;100.00;100613.34;4995686;28;20594;-77
2023/12/09 00:53:15;;;;;;;3.03;2.73;;;;;;;3.57;100.00;100612.56;5013592;28;20193;-76
2023/12/09 00:55:42;;;;;;;2.10;1.40;;;;;;;3.45;100.00;100618.81;5013610;28;20205;-77
2023/12/09 00:58:09;;;;;;;1.00;1.00;;;;;;;3.54;100.00;100628.66;5014056;28;20208;-76
2023/12/09 01:00:35;;;;;;;1.67;1.57;;;;;;;3.54;100.00;100617.50;4978913;28;20189;-78
2023/12/09 01:03:02;;;;;;;2.80;2.70;;;;;;;3.39;100.00;100592.84;5017778;28;20213;-77
2023/12/09 01:05:30;;;;;;;1.10;1.10;;;;;;;3.50;100.00;100627.63;5013285;28;20200;-77
2023/12/09 01:07:57;;;;;;;1.00;1.00;;;;;;;3.38;100.00;100627.00;5012954;28;20208;-77
2023/12/09 01:10:24;;;;;;;1.40;1.40;;;;;;;3.14;100.00;100600.06;5013499;28;20233;-77
2023/12/09 01:12:51;;;;;;;8.30;2.50;;;;;;;3.22;100.00;100629.53;5012984;28;20240;-77
2023/12/09 01:15:18;;;;;;;0.97;0.97;;;;;;;3.14;100.00;100629.97;5012875;28;20715;-77
2023/12/09 01:17:44;;;;;;;1.37;1.37;;;;;;;3.20;100.00;100645.66;5012531;28;20591;-77
2023/12/09 01:20:14;;;;;;;5.63;2.63;;;;;;;2.98;100.00;100607.75;5012220;28;20628;-77
2023/12/09 01:22:42;;;;;;;1.10;1.10;;;;;;;3.26;100.00;100630.59;5012934;28;20307;-77
2023/12/09 01:25:09;;;;;;;0.97;0.97;;;;;;;3.19;100.00;100626.81;5013130;28;20204;-76
2023/12/09 01:27:36;;;;;;;0.80;0.80;;;;;;;3.05;100.00;100624.31;5010484;28;20193;-77
2023/12/09 01:30:03;;;;;;;2.07;2.00;;;;;;;2.85;100.00;100582.31;5012934;28;20573;-77
2023/12/09 01:32:30;;;;;;;2.30;2.10;;;;;;;3.01;100.00;100618.16;5013101;28;20212;-77
2023/12/09 01:34:57;;;;;;;0.90;0.90;;;;;;;2.99;100.00;100610.41;5013433;28;20255;-76
2023/12/09 01:37:24;;;;;;;0.90;0.90;;;;;;;2.88;100.00;100600.38;5012875;28;20221;-76
2023/12/09 01:39:52;;;;;;;1.40;1.40;;;;;;;2.84;100.00;100603.59;5013086;28;20197;-77
2023/12/09 01:42:19;;;;;;;3.80;2.23;;;;;;;2.76;100.00;100603.16;5012843;28;20228;-76
2023/12/09 01:44:46;;;;;;;1.20;1.20;;;;;;;2.71;100.00;100606.28;5013233;28;20243;-76
2023/12/09 01:47:13;;;;;;;1.03;1.03;;;;;;;2.67;100.00;100599.22;5012627;28;20204;-76
2023/12/09 01:49:40;;;;;;;1.40;1.40;;;;;;;2.61;100.00;100604.00;5011465;28;20206;-77
2023/12/09 01:52:07;;;;;;;1.20;1.20;;;;;;;2.54;100.00;100594.22;5012040;28;20201;-77
2023/12/09 01:54:34;;;;;;;2.63;1.30;;;;;;;2.45;100.00;100597.19;5012186;28;20313;-77
2023/12/09 01:57:03;;;;;;;0.80;0.80;;;;;;;2.27;100.00;100561.22;5012211;28;20592;-77
2023/12/09 01:59:31;;;;;;;0.80;0.80;;;;;;;2.47;100.00;100595.56;5012377;28;20236;-77
2023/12/09 02:01:58;;;;;;;2.43;2.23;;;;;;;2.49;100.00;100589.75;5012220;28;20225;-77
2023/12/09 02:04:25;;;;;;;1.00;1.00;;;;;;;2.32;100.00;100584.50;4994441;28;20305;-77
2023/12/09 02:06:51;;;;;;;0.90;0.90;;;;;;;2.43;100.00;100599.63;5010407;28;20201;-78
2023/12/09 02:09:18;;;;;;;1.00;1.00;;;;;;;2.38;100.00;100598.53;5012761;28;20201;-77
2023/12/09 02:11:56;;;;;;;0.77;0.77;;;;;;;2.50;100.00;100600.84;5012105;28;20200;-77
2023/12/09 02:14:30;;;;;;;1.20;1.20;;;;;;;2.47;100.00;100588.78;5011594;28;20204;-77
2023/12/09 02:17:04;;;;;;;1.03;1.03;;;;;;;2.48;100.00;100593.09;5012772;28;20294;-77
2023/12/09 02:19:31;;;;;;;0.70;0.70;;;;;;;2.16;100.00;100551.19;5012471;28;20232;-77
2023/12/09 02:22:00;;;;;;;1.33;1.33;;;;;;;2.56;100.00;100600.31;5011797;28;20228;-77
2023/12/09 02:24:28;;;;;;;1.43;1.43;;;;;;;2.36;100.00;100576.19;5012447;28;20208;-77
2023/12/09 02:26:59;;;;;;;1.63;1.63;;;;;;;2.54;100.00;100607.03;5012013;28;20204;-77
2023/12/09 02:29:28;;;;;;;3.80;1.43;;;;;;;2.45;100.00;100584.38;5011820;28;20201;-77
2023/12/09 02:32:03;;;;;;;1.50;1.50;;;;;;;2.65;100.00;100600.81;5011294;28;20284;-77
2023/12/09 02:34:32;;;;;;;1.37;1.37;;;;;;;2.63;100.00;100602.41;5012243;28;20239;-77
2023/12/09 02:37:00;;;;;;;13.03;1.83;;;;;;;2.40;100.00;100573.00;5011467;28;20645;-77
2023/12/09 02:39:28;;;;;;;1.80;1.70;;;;;;;2.62;100.00;100603.22;5011792;28;20689;-77
2023/12/09 02:41:57;;;;;;;1.67;1.67;;;;;;;2.50;100.00;100576.16;5011433;28;20228;-77
2023/12/09 02:44:24;;;;;;;1.27;1.27;;;;;;;1.86;100.00;100453.19;5012158;28;20236;-77
2023/12/09 02:46:56;;;;;;;1.43;1.43;;;;;;;2.79;100.00;100597.31;5012088;28;20208;-77
2023/12/09 02:49:23;;;;;;;3.67;2.70;;;;;;;2.77;100.00;100596.38;5012048;28;20291;-77
2023/12/09 02:51:50;;;;;;;4.13;3.83;;;;;;;2.88;100.00;100600.38;4977033;28;20200;-77
2023/12/09 02:54:17;;;;;;;1.20;1.20;;;;;;;2.86;100.00;100604.53;5011683;28;20212;-77
2023/12/09 02:56:45;;;;;;;1.13;1.13;;;;;;;2.86;100.00;100592.63;5011774;28;20209;-77
2023/12/09 02:59:11;;;;;;;0.90;0.90;;;;;;;2.91;100.00;100593.75;5012083;28;20197;-77
2023/12/09 03:01:38;;;;;;;1.00;1.00;;;;;;;2.87;100.00;100579.00;5010425;28;20224;-77
2023/12/09 03:04:05;;;;;;;3.43;1.43;;;;;;;2.43;100.00;100492.16;5011665;28;20634;-78
2023/12/09 03:06:32;;;;;;;2.30;2.20;;;;;;;3.09;100.00;100605.75;5011267;28;20211;-77
2023/12/09 03:08:59;;;;;;;0.93;0.93;;;;;;;3.21;100.00;100609.84;5011622;28;20693;-77
2023/12/09 03:11:26;;;;;;;1.03;1.03;;;;;;;3.33;100.00;100607.94;4974518;28;20201;-77
2023/12/09 03:13:54;;;;;;;1.80;1.63;;;;;;;3.37;100.00;100614.09;5010514;28;20216;-77
2023/12/09 03:16:21;;;;;;;3.30;2.37;;;;;;;3.33;100.00;100619.84;5011259;28;20721;-77
2023/12/09 03:18:47;;;;;;;7.93;3.37;;;;;;;3.26;100.00;100600.72;5011348;28;20224;-76
2023/12/09 03:21:15;;;;;;;1.60;1.50;;;;;;;3.15;100.00;100621.44;5011235;28;20205;-76
2023/12/09 03:23:43;;;;;;;2.33;2.23;;;;;;;3.00;100.00;100624.06;5012144;28;20287;-78
2023/12/09 03:26:15;;;;;;;3.30;1.37;;;;;;;3.15;100.00;100622.34;5010542;28;20243;-77
2023/12/09 03:28:42;;;;;;;1.87;1.87;;;;;;;2.69;100.00;100565.22;5008854;28;20215;-78
2023/12/09 03:31:11;;;;;;;3.90;2.50;;;;;;;3.00;100.00;100622.41;5011577;28;20274;-76
2023/12/09 03:33:38;;;;;;;2.97;2.87;;;;;;;2.85;100.00;100587.44;5008664;28;20287;-76
2023/12/09 03:36:06;;;;;;;1.40;1.40;;;;;;;2.79;100.00;100589.63;5011689;28;20205;-77
2023/12/09 03:38:32;;;;;;;7.50;4.20;;;;;;;2.82;100.00;100610.28;4992902;28;20201;-77
2023/12/09 03:40:59;;;;;;;5.63;2.77;;;;;;;2.75;100.00;100605.63;5011380;28;20197;-77
2023/12/09 03:43:26;;;;;;;1.20;1.20;;;;;;;2.45;100.00;100604.84;4992526;28;20224;-77
2023/12/09 03:45:53;;;;;;;1.97;1.90;;;;;;;2.61;100.00;100599.75;4992642;28;20196;-76
2023/12/09 03:48:21;;;;;;;1.00;1.00;;;;;;;2.49;100.00;100600.00;5011317;28;20267;-76
2023/12/09 03:50:48;;;;;;;3.77;3.43;;;;;;;2.47;100.00;100604.13;5011311;28;20201;-77
2023/12/09 03:53:15;;;;;;;2.03;1.93;;;;;;;2.49;100.00;100605.13;4973150;28;20214;-76
2023/12/09 03:55:41;;;;;;;1.53;1.53;;;;;;;2.51;100.00;100607.75;5009179;28;20208;-77
2023/12/09 03:58:08;;;;;;;3.03;2.50;;;;;;;2.49;100.00;100614.47;5011207;28;20271;-77
2023/12/09 04:00:35;;;;;;;1.87;1.77;;;;;;;2.61;100.00;100604.00;4975804;28;20686;-77
2023/12/09 04:03:03;;;;;;;0.90;0.90;;;;;;;2.58;100.00;100583.34;4987222;28;20225;-76
2023/12/09 04:05:31;;;;;;;1.10;1.10;;;;;;;2.66;100.00;100607.69;4993081;28;20264;-76
2023/12/09 04:07:58;;;;;;;2.67;2.57;;;;;;;2.54;100.00;100581.44;5010740;28;20207;-76
2023/12/09 04:10:24;;;;;;;1.07;1.07;;;;;;;2.91;100.00;100621.03;5010456;28;20193;-76
2023/12/09 04:12:51;;;;;;;1.03;1.03;;;;;;;3.08;100.00;100622.81;5012217;28;20283;-77
2023/12/09 04:15:18;;;;;;;2.13;1.47;;;;;;;3.16;100.00;100612.97;5014645;28;20212;-76
2023/12/09 04:17:45;;;;;;;1.93;1.80;;;;;;;3.09;100.00;100616.00;5014503;28;20201;-76
2023/12/09 04:20:12;;;;;;;1.00;1.00;;;;;;;3.25;100.00;100623.69;5014524;28;20239;-76
2023/12/09 04:22:40;;;;;;;1.73;1.67;;;;;;;3.20;100.00;100627.72;5013919;28;20303;-77
2023/12/09 04:25:08;;;;;;;2.50;2.23;;;;;;;3.21;100.00;100625.22;5014719;28;20201;-76
2023/12/09 04:27:35;;;;;;;1.00;1.00;;;;;;;3.29;100.00;100636.75;5013884;28;20196;-76
2023/12/09 04:30:03;;;;;;;1.53;1.53;;;;;;;2.99;100.00;100605.28;4993088;28;20201;-76
2023/12/09 04:32:30;;;;;;;1.57;1.47;;;;;;;3.27;100.00;100615.31;5000776;28;20673;-76
2023/12/09 04:34:57;;;;;;;1.17;1.17;;;;;;;3.23;100.00;100610.81;5014577;28;20224;-77
2023/12/09 04:37:24;;;;;;;1.67;1.63;;;;;;;3.43;100.00;100638.34;5014041;28;20220;-77
2023/12/09 04:39:52;;;;;;;2.03;1.93;;;;;;;3.35;100.00;100644.75;5014406;28;20207;-77
2023/12/09 04:42:20;;;;;;;1.00;1.00;;;;;;;3.39;100.00;100645.78;4979260;28;20221;-76
2023/12/09 04:44:46;;;;;;;1.10;1.10;;;;;;;3.44;100.00;100644.38;5014146;28;20618;-77
2023/12/09 04:47:13;;;;;;;1.20;1.20;;;;;;;3.24;100.00;100617.72;5014085;28;20220;-76
2023/12/09 04:49:40;;;;;;;1.53;1.53;;;;;;;3.24;100.00;100658.72;5014129;28;20197;-74
2023/12/09 04:52:07;;;;;;;1.00;1.00;;;;;;;3.26;100.00;100672.47;5013976;28;20209;-76
2023/12/09 04:54:34;;;;;;;2.83;2.73;;;;;;;3.33;100.00;100661.75;5013789;28;20606;-76
2023/12/09 04:57:02;;;;;;;1.10;1.10;;;;;;;3.40;100.00;100671.50;5013890;28;20201;-75
2023/12/09 04:59:29;;;;;;;1.00;1.00;;;;;;;3.29;100.00;100667.50;5013688;28;20645;-76
2023/12/09 05:01:56;;;;;;;2.37;2.20;;;;;;;3.32;100.00;100677.91;5013239;28;20236;-76
2023/12/09 05:04:22;;;;;;;0.87;0.87;;;;;;;3.40;100.00;100681.75;5013381;28;20205;-76
2023/12/09 05:06:49;;;;;;;0.97;0.97;;;;;;;3.49;100.00;100682.25;5014938;28;20209;-76
2023/12/09 05:09:16;;;;;;;1.07;1.07;;;;;;;3.42;100.00;100684.41;5003278;28;20209;-76
2023/12/09 05:11:43;;;;;;;0.93;0.93;;;;;;;3.36;100.00;100684.06;5022259;28;20200;-76
2023/12/09 05:14:11;;;;;;;1.00;1.00;;;;;;;3.46;100.00;100676.94;5013154;28;20661;-76
2023/12/09 05:16:38;;;;;;;1.47;1.47;;;;;;;3.49;100.00;100684.84;5011290;28;20201;-76
2023/12/09 05:19:06;;;;;;;1.07;1.07;;;;;;;3.43;100.00;100676.78;5012937;28;20239;-76
2023/12/09 05:21:33;;;;;;;1.80;1.80;;;;;;;3.30;100.00;100678.63;5031813;28;20262;-76
2023/12/09 05:24:02;;;;;;;2.67;2.57;;;;;;;3.12;100.00;100632.44;5016039;28;20225;-76
2023/12/09 05:26:29;;;;;;;1.13;1.13;;;;;;;3.53;100.00;100678.19;5013167;28;20211;-75
2023/12/09 05:28:57;;;;;;;10.27;4.00;;;;;;;3.56;100.00;100680.00;5012650;28;20204;-75
2023/12/09 05:31:26;;;;;;;1.10;1.10;;;;;;;3.61;100.00;100683.69;5013262;28;20201;-76
2023/12/09 05:33:54;;;;;;;1.10;1.10;;;;;;;3.40;100.00;100661.25;5012714;28;20228;-76
2023/12/09 05:36:21;;;;;;;2.20;2.10;;;;;;;3.55;100.00;100688.50;5011288;28;20201;-76
2023/12/09 05:38:47;;;;;;;2.20;1.97;;;;;;;3.43;100.00;100688.72;5012467;28;20216;-76
2023/12/09 05:41:14;;;;;;;1.20;1.20;;;;;;;3.29;100.00;100682.00;5005067;28;20224;-75
2023/12/09 05:43:43;;;;;;;1.83;1.73;;;;;;;3.03;100.00;100585.84;5006593;28;20217;-76
2023/12/09 05:46:09;;;;;;;5.27;4.77;;;;;;;3.64;100.00;100691.56;5013200;28;20209;-76
2023/12/09 05:48:38;;;;;;;1.00;1.00;;;;;;;3.62;100.00;100693.16;5012903;28;20212;-77
2023/12/09 05:51:06;;;;;;;1.57;1.53;;;;;;;3.66;100.00;100700.19;5012714;28;20203;-76
2023/12/09 05:53:33;;;;;;;1.13;1.13;;;;;;;3.63;100.00;100690.66;5012541;28;20204;-76
2023/12/09 05:56:00;;;;;;;2.03;1.83;;;;;;;3.64;100.00;100706.94;5012761;28;20232;-76
2023/12/09 05:58:26;;;;;;;1.97;1.83;;;;;;;3.65;100.00;100709.56;5012536;28;20209;-76
2023/12/09 06:00:53;;;;;;;2.17;2.10;;;;;;;3.76;100.00;100717.81;5012844;28;20297;-75
2023/12/09 06:03:21;;;;;;;2.57;2.37;;;;;;;3.67;100.00;100709.66;5011943;28;20312;-76
2023/12/09 06:05:49;;;;;;;3.60;3.07;;;;;;;3.69;100.00;100710.59;5012454;28;20204;-76
2023/12/09 06:08:15;;;;;;;0.90;0.90;;;;;;;3.56;100.00;100695.41;5010525;28;20212;-76
2023/12/09 06:10:42;;;;;;;1.00;1.00;;;;;;;3.56;100.00;100709.09;5012115;28;20216;-76
2023/12/09 06:13:09;;;;;;;1.50;1.50;;;;;;;3.78;100.00;100716.22;5011299;28;20665;-76
2023/12/09 06:15:36;;;;;;;0.90;0.90;;;;;;;3.55;100.00;100726.94;5002141;28;20583;-76
2023/12/09 06:18:03;;;;;;;1.10;1.10;;;;;;;3.62;100.00;100714.53;5008389;28;20205;-72
2023/12/09 06:20:30;;;;;;;1.00;1.00;;;;;;;3.69;100.00;100696.09;5014156;28;20255;-75
2023/12/09 06:22:58;;;;;;;0.80;0.80;;;;;;;3.92;100.00;100728.94;5011164;28;20236;-74
2023/12/09 06:25:25;;;;;;;1.33;1.33;;;;;;;3.83;100.00;100709.63;5014550;28;20208;-75
2023/12/09 06:27:51;;;;;;;2.70;2.37;;;;;;;3.81;100.00;100729.22;4976716;28;20204;-76
2023/12/09 06:30:18;;;;;;;2.13;2.03;;;;;;;3.66;100.00;100733.53;5006494;28;20218;-76
2023/12/09 06:32:46;;;;;;;1.73;1.73;;;;;;;3.75;100.00;100728.88;5006958;28;20208;-71
2023/12/09 06:35:13;;;;;;;1.90;1.80;;;;;;;3.59;100.00;100739.13;4972690;28;20220;-76
2023/12/09 06:37:39;;;;;;;1.30;1.30;;;;;;;3.80;100.00;100737.69;5005824;28;20208;-75
2023/12/09 06:40:09;;;;;;;5.00;4.60;;;;;;;3.82;100.00;100736.06;5003094;28;20211;-73
2023/12/09 06:42:37;;;;;;;2.53;2.43;;;;;;;3.71;100.00;100714.16;5002168;28;20236;-75
2023/12/09 06:45:04;;;;;;;2.57;2.47;;;;;;;3.77;100.00;100720.47;5009772;28;20205;-73
2023/12/09 06:47:32;;;;;;;1.23;1.23;;;;;;;3.93;100.00;100747.78;4987234;28;20279;-75
2023/12/09 06:49:59;;;;;;;1.60;1.50;;;;;;;3.84;100.00;100752.44;5012152;28;20276;-72
2023/12/09 06:52:25;;;;;;;2.83;2.73;;;;;;;3.87;100.00;100752.59;5014778;28;20208;-72
2023/12/09 06:54:52;;;;;;;1.87;1.87;;;;;;;3.86;100.00;100750.81;5015354;28;20201;-72
2023/12/09 06:57:20;;;;;;;1.10;1.10;;;;;;;3.76;100.00;100758.84;5001285;28;20878;-74
2023/12/09 06:59:47;;;;;;;2.53;2.43;;;;;;;3.65;100.00;100763.41;4994541;28;20197;-70
2023/12/09 07:02:14;;;;;;;0.90;0.90;;;;;;;3.71;100.00;100765.44;4990862;28;20204;-73
2023/12/09 07:04:40;;;;;;;1.67;1.63;;;;;;;3.69;100.00;100737.13;5018522;28;20212;-71
2023/12/09 07:07:07;;;;;;;1.33;1.30;;;;;;;3.72;100.00;100728.72;5014871;28;20204;-71
2023/12/09 07:09:35;;;;;;;1.60;1.50;;;;;;;3.97;100.00;100770.22;5007261;28;20209;-74
2023/12/09 07:12:03;;;;;;;2.13;2.03;;;;;;;3.94;100.00;100776.09;5008981;28;20204;-72
2023/12/09 07:14:31;;;;;;;2.80;2.70;;;;;;;4.11;100.00;100774.38;5008888;28;20213;-73
2023/12/09 07:16:58;;;;;;;4.47;3.13;;;;;;;4.06;100.00;100770.72;5007046;28;20212;-74
2023/12/09 07:19:24;;;;;;;1.33;1.33;;;;;;;3.95;100.00;100769.28;5009636;28;20287;-75
2023/12/09 07:21:51;;;;;;;0.80;0.80;;;;;;;4.16;100.00;100772.06;5004746;28;20209;-73
2023/12/09 07:24:18;;;;;;;1.20;1.20;;;;;;;4.13;100.00;100767.66;5016231;28;20260;-74
2023/12/09 07:26:45;;;;;;;0.90;0.90;;;;;;;4.03;100.00;100760.31;5010118;28;20223;-74
2023/12/09 07:29:11;;;;;;;3.17;1.67;;;;;;;3.60;100.00;100731.53;5009450;28;20262;-74
2023/12/09 07:31:39;;;;;;;1.10;1.10;;;;;;;4.08;100.00;100763.97;5009359;28;20215;-73
2023/12/09 07:34:06;;;;;;;2.70;2.10;;;;;;;4.16;100.00;100746.41;5011056;28;20204;-75
2023/12/09 07:36:33;;;;;;;1.20;1.20;;;;;;;4.38;100.00;100773.25;5019610;28;20536;-76
2023/12/09 07:39:00;;;;;;;1.30;1.30;;;;;;;4.27;100.00;100751.28;5011652;28;20653;-78
2023/12/09 07:41:26;;;;;;;2.23;2.10;;;;;;;4.12;100.00;100775.28;5008558;28;20259;-75
2023/12/09 07:43:53;;;;;;;3.30;3.10;;;;;;;4.36;100.00;100769.69;5015436;28;20224;-75
2023/12/09 07:46:20;;;;;;;1.93;1.83;;;;;;;4.60;100.00;100770.06;5007312;28;20219;-73
2023/12/09 07:48:48;;;;;;;1.17;1.17;;;;;;;4.77;100.00;100768.31;5003568;28;20192;-74
2023/12/09 07:51:15;;;;;;;2.77;1.67;;;;;;;4.67;100.00;100784.09;4993771;28;20205;-75
2023/12/09 07:53:41;;;;;;;2.00;1.73;;;;;;;4.30;100.00;100779.66;4997212;28;20220;-75
2023/12/09 07:56:09;;;;;;;2.40;1.67;;;;;;;4.36;100.00;100784.22;5010472;28;20216;-73
2023/12/09 07:58:36;;;;;;;3.80;2.60;;;;;;;4.29;100.00;100782.16;5012774;28;20696;-74
2023/12/09 08:01:03;;;;;;;2.13;2.03;;;;;;;4.24;100.00;100776.81;5010029;28;20600;-73
2023/12/09 08:03:32;;;;;;;2.13;2.03;;;;;;;4.14;100.00;100783.97;5010086;28;20295;-72
2023/12/09 08:06:02;;;;;;;2.07;2.00;;;;;;;4.42;100.00;100790.53;5009968;28;20200;-73
2023/12/09 08:08:29;;;;;;;1.00;1.00;;;;;;;4.08;100.00;100763.97;5009763;28;20196;-73
2023/12/09 08:10:55;;;;;;;1.00;1.00;;;;;;;4.58;100.00;100792.22;5008879;28;20661;-75
2023/12/09 08:13:22;;;;;;;1.40;1.40;;;;;;;4.45;100.00;100788.16;5002833;28;20205;-74
2023/12/09 08:15:49;;;;;;;1.40;1.30;;;;;;;4.67;100.00;100795.25;5013438;28;20220;-74
2023/12/09 08:18:16;;;;;;;4.33;2.70;;;;;;;4.56;100.00;100798.09;5006886;28;20208;-73
2023/12/09 08:20:43;;;;;;;6.93;4.47;;;;;;;4.62;100.00;100799.25;5007748;28;20225;-72
2023/12/09 08:23:11;;;;;;;1.20;1.20;;;;;;;4.59;100.00;100793.97;4998837;28;20257;-72
2023/12/09 08:25:39;;;;;;;1.17;1.17;;;;;;;4.56;100.00;100786.13;5004892;28;20629;-73
2023/12/09 08:28:06;;;;;;;3.23;3.13;;;;;;;4.44;100.00;100790.63;5004335;28;20204;-73
2023/12/09 08:30:32;;;;;;;4.90;4.40;;;;;;;4.23;100.00;100785.28;5004972;28;20233;-75
2023/12/09 08:32:59;;;;;;;5.17;3.60;;;;;;;4.46;100.00;100792.47;5007920;28;20692;-73
2023/12/09 08:35:26;;;;;;;1.63;1.63;;;;;;;4.20;100.00;100768.88;5010756;28;20204;-74
2023/12/09 08:37:53;;;;;;;3.67;3.30;;;;;;;4.44;100.00;100785.50;4970265;28;20209;-75
2023/12/09 08:40:21;;;;;;;0.90;0.90;;;;;;;4.58;100.00;100788.75;5012324;28;20204;-72
2023/12/09 08:42:47;;;;;;;1.20;1.20;;;;;;;4.55;100.00;100770.63;5005283;28;20208;-75
2023/12/09 08:45:16;;;;;;;1.63;1.63;;;;;;;4.30;100.00;100756.56;5005404;28;20301;-76
2023/12/09 08:47:43;;;;;;;1.10;1.10;;;;;;;4.17;100.00;100787.56;5004908;28;20201;-76
2023/12/09 08:50:10;;;;;;;0.80;0.80;;;;;;;4.33;100.00;100787.53;5005070;28;20221;-77
2023/12/09 08:52:39;;;;;;;1.50;1.40;;;;;;;4.39;100.00;100785.25;5009493;28;20205;-75
2023/12/09 08:55:07;;;;;;;1.00;1.00;;;;;;;4.36;100.00;100785.09;5009712;28;20543;-72
2023/12/09 08:57:35;;;;;;;0.90;0.90;;;;;;;4.37;100.00;100768.91;4990992;28;20263;-75
2023/12/09 09:00:07;;;;;;;1.00;1.00;;;;;;;4.73;100.00;100784.38;5008160;28;20209;-75
2023/12/09 09:02:33;;;;;;;3.37;3.27;;;;;;;4.52;100.00;100783.31;5012595;28;20232;-73
2023/12/09 09:05:00;;;;;;;1.40;1.40;;;;;;;4.68;100.00;100767.84;5019507;28;20720;-73
2023/12/09 09:07:27;;;;;;;1.70;1.60;;;;;;;4.87;100.00;100773.97;4994462;28;20227;-76
2023/12/09 09:09:54;;;;;;;3.50;2.60;;;;;;;4.90;100.00;100770.66;5014203;28;20197;-73
2023/12/09 09:12:20;;;;;;;3.43;3.10;;;;;;;4.70;100.00;100773.97;5014682;28;20204;-75
2023/12/09 09:14:49;;;;;;;0.83;0.83;;;;;;;4.65;100.00;100765.13;5012224;28;20339;-74
2023/12/09 09:17:16;;;;;;;1.30;1.30;;;;;;;4.85;100.00;100764.44;5012342;28;20661;-77
2023/12/09 09:19:42;;;;;;;0.90;0.90;;;;;;;4.89;100.00;100768.91;5012464;28;20720;-71
2023/12/09 09:22:09;;;;;;;0.70;0.70;;;;;;;5.18;100.00;100754.88;4999743;28;20653;-71
2023/12/09 09:24:36;;;;;;;0.70;0.70;;;;;;;5.35;100.00;100754.84;5011705;28;20227;-72
2023/12/09 09:27:03;;;;;;;1.40;1.40;;;;;;;5.29;100.00;100754.56;5012758;28;20193;-75
2023/12/09 09:29:30;;;;;;;3.03;2.33;;;;;;;5.13;100.00;100746.97;5018351;28;20197;-76
2023/12/09 09:31:58;;;;;;;0.80;0.80;;;;;;;5.09;100.00;100724.50;4967478;28;20221;-77
2023/12/09 09:34:25;;;;;;;1.97;1.97;;;;;;;4.53;100.00;100708.06;5008985;28;20204;-77
2023/12/09 09:36:52;;;;;;;1.07;1.07;;;;;;;4.66;100.00;100738.66;5019942;28;20200;-76
2023/12/09 09:39:19;;;;;;;1.83;1.73;;;;;;;4.66;100.00;100721.56;4988632;28;20209;-78
2023/12/09 09:42:10;;;;;;;0.80;0.80;;;;;;;4.50;100.00;100732.75;5003955;28;20212;-75
2023/12/09 09:44:44;;;;;;;4.37;1.33;;;;;;;4.63;100.00;100706.00;5003939;28;20240;-79
2023/12/09 09:47:13;;;;;;;1.10;1.10;;;;;;;4.77;100.00;100717.84;5008681;28;20196;-85
2023/12/09 09:49:42;;;;;;;1.70;1.67;;;;;;;4.46;100.00;100712.88;5011099;28;20204;-77
2023/12/09 09:52:10;;;;;;;9.13;1.43;;;;;;;4.64;100.00;100692.34;4950301;28;20213;-77
2023/12/09 09:54:39;;;;;;;1.10;1.10;;;;;;;4.96;100.00;100710.16;4993278;28;20212;-77
2023/12/09 09:57:08;;;;;;;1.07;1.07;;;;;;;4.90;100.00;100712.47;5009092;28;20693;-77
2023/12/09 09:59:35;;;;;;;1.30;1.30;;;;;;;4.67;100.00;100712.19;5012270;28;20215;-78
2023/12/09 10:02:04;;;;;;;1.90;1.83;;;;;;;4.64;100.00;100714.59;5010982;28;20220;-78
2023/12/09 10:04:33;;;;;;;1.27;1.27;;;;;;;4.78;100.00;100711.00;5012558;28;20311;-78
2023/12/09 10:07:01;;;;;;;0.73;0.73;;;;;;;4.39;100.00;100710.81;5012643;28;20550;-78
2023/12/09 10:09:28;;;;;;;1.13;1.13;;;;;;;4.22;100.00;100703.09;4995536;28;20211;-79
2023/12/09 10:11:55;;;;;;;1.60;1.60;;;;;;;4.31;100.00;100706.13;5008989;28;20213;-75
2023/12/09 10:14:23;;;;;;;0.70;0.70;;;;;;;4.57;100.00;100707.38;4976341;28;20660;-74
2023/12/09 10:16:50;;;;;;;0.90;0.90;;;;;;;4.75;100.00;100701.44;5009052;28;20219;-77
2023/12/09 10:19:17;;;;;;;2.67;1.77;;;;;;;4.78;100.00;100708.44;4976793;28;20229;-73
2023/12/09 10:21:46;;;;;;;2.00;1.90;;;;;;;5.10;100.00;100689.41;5011858;28;20236;-82
2023/12/09 10:24:13;;;;;;;1.40;1.40;;;;;;;5.07;100.00;100710.66;4998772;28;20327;-72
2023/12/09 10:26:40;;;;;;;0.90;0.90;;;;;;;4.99;100.00;100692.31;5009163;28;20205;-73
2023/12/09 10:29:07;;;;;;;1.73;1.23;;;;;;;5.14;100.00;100712.72;5002343;28;20239;-71
2023/12/09 10:31:35;;;;;;;1.00;1.00;;;;;;;5.11;100.00;100709.13;4982525;28;20737;-73
2023/12/09 10:34:02;;;;;;;4.60;1.77;;;;;;;4.74;100.00;100703.97;5007301;28;20236;-70
2023/12/09 10:36:30;;;;;;;0.93;0.93;;;;;;;5.05;100.00;100703.72;4992824;28;20284;-74
2023/12/09 10:38:59;;;;;;;0.83;0.83;;;;;;;5.06;100.00;100702.91;4992550;28;20204;-75
2023/12/09 10:41:26;;;;;;;3.40;1.93;;;;;;;5.24;100.00;100694.38;5007503;28;20283;-80
2023/12/09 10:43:53;;;;;;;0.90;0.90;;;;;;;5.14;100.00;100681.88;5009192;28;20216;-75
2023/12/09 10:46:20;;;;;;;0.80;0.80;;;;;;;5.27;100.00;100704.78;5010962;28;20712;-73
2023/12/09 10:48:47;;;;;;;1.00;1.00;;;;;;;4.81;100.00;100695.75;5011014;28;20209;-72
2023/12/09 10:51:14;;;;;;;2.07;1.97;;;;;;;4.52;100.00;100691.78;5010358;28;20208;-72
2023/12/09 10:53:41;;;;;;;5.10;3.53;;;;;;;4.54;100.00;100695.28;5010802;28;20228;-72
2023/12/09 10:56:10;;;;;;;0.83;0.83;;;;;;;4.67;100.00;100691.63;5005493;28;20217;-75
2023/12/09 10:58:37;;;;;;;1.10;1.10;;;;;;;4.68;100.00;100691.69;5009027;28;20208;-77
2023/12/09 11:01:05;;;;;;;0.90;0.90;;;;;;;4.03;100.00;100569.56;5010713;28;20212;-76
2023/12/09 11:03:33;;;;;;;1.67;1.57;;;;;;;4.38;100.00;100664.53;5011111;28;20237;-74
2023/12/09 11:06:02;;;;;;;0.70;0.70;;;;;;;4.60;100.00;100684.44;5010942;28;20212;-78
2023/12/09 11:08:29;;;;;;;2.53;2.40;;;;;;;4.63;100.00;100670.06;4945136;28;20231;-75
2023/12/09 11:10:57;;;;;;;1.10;1.10;;;;;;;4.91;100.00;100669.66;5004332;28;20251;-74
2023/12/09 11:13:29;;;;;;;1.10;1.10;;;;;;;4.83;100.00;100681.25;5000805;28;20577;-71
2023/12/09 11:16:11;;;;;;;1.87;1.70;;;;;;;5.01;100.00;100679.56;4994558;28;20205;-74
2023/12/09 11:18:47;;;;;;;0.90;0.90;;;;;;;4.91;100.00;100682.50;4936413;29;20720;-74
2023/12/09 11:21:16;;;;;;;1.43;1.33;;;;;;;6.37;100.00;100644.44;4940059;29;20211;-74
2023/12/09 11:23:45;;;;;;;0.80;0.80;;;;;;;5.62;100.00;100677.19;4939917;29;20441;-73
2023/12/09 11:26:15;;;;;;;1.00;1.00;;;;;;;5.62;100.00;100685.78;4941714;28;20211;-74